sensor_id;sensor_type;location;lat;lon;timestamp;P1;durP1;ratioP1;P2;durP2;ratioP2
17727;SDS011;8984;49.268;12.302;2023-02-28T00:01:06;9.37;;;6.93;;
17727;SDS011;8984;49.268;12.302;2023-02-28T00:03:34;7.80;;;6.03;;
17727;SDS011;8984;49.268;12.302;2023-02-28T00:06:01;9.20;;;7.03;;
17727;SDS011;8984;49.268;12.302;2023-02-28T00:08:28;7.97;;;6.43;;
17727;SDS011;8984;49.268;12.302;2023-02-28T00:10:55;9.47;;;6.67;;
17727;SDS011;8984;49.268;12.302;2023-02-28T00:13:22;9.17;;;6.70;;
17727;SDS011;8984;49.268;12.302;2023-02-28T00:15:57;8.10;;;6.70;;
17727;SDS011;8984;49.268;12.302;2023-02-28T00:18:25;9.50;;;6.90;;
17727;SDS011;8984;49.268;12.302;2023-02-28T00:20:53;10.97;;;7.03;;
17727;SDS011;8984;49.268;12.302;2023-02-28T00:23:20;7.97;;;6.87;;
17727;SDS011;8984;49.268;12.302;2023-02-28T00:25:46;10.40;;;7.60;;
17727;SDS011;8984;49.268;12.302;2023-02-28T00:28:13;10.03;;;7.10;;
17727;SDS011;8984;49.268;12.302;2023-02-28T00:30:40;10.87;;;7.30;;
17727;SDS011;8984;49.268;12.302;2023-02-28T00:33:07;9.27;;;7.10;;
17727;SDS011;8984;49.268;12.302;2023-02-28T00:35:34;10.50;;;7.63;;
17727;SDS011;8984;49.268;12.302;2023-02-28T00:38:02;12.87;;;8.23;;
17727;SDS011;8984;49.268;12.302;2023-02-28T00:40:29;13.83;;;7.97;;
17727;SDS011;8984;49.268;12.302;2023-02-28T00:42:56;9.87;;;7.50;;
17727;SDS011;8984;49.268;12.302;2023-02-28T00:45:23;9.80;;;7.70;;
17727;SDS011;8984;49.268;12.302;2023-02-28T00:47:50;11.53;;;8.73;;
17727;SDS011;8984;49.268;12.302;2023-02-28T00:50:17;12.17;;;7.80;;
17727;SDS011;8984;49.268;12.302;2023-02-28T00:52:43;9.57;;;7.40;;
17727;SDS011;8984;49.268;12.302;2023-02-28T00:55:12;10.47;;;8.23;;
17727;SDS011;8984;49.268;12.302;2023-02-28T00:57:39;11.53;;;7.60;;
17727;SDS011;8984;49.268;12.302;2023-02-28T01:00:06;10.43;;;7.63;;
17727;SDS011;8984;49.268;12.302;2023-02-28T01:02:34;9.33;;;6.87;;
17727;SDS011;8984;49.268;12.302;2023-02-28T01:05:01;10.13;;;7.40;;
17727;SDS011;8984;49.268;12.302;2023-02-28T01:07:27;9.03;;;7.20;;
17727;SDS011;8984;49.268;12.302;2023-02-28T01:09:54;9.63;;;7.37;;
17727;SDS011;8984;49.268;12.302;2023-02-28T01:12:23;10.73;;;7.80;;
17727;SDS011;8984;49.268;12.302;2023-02-28T01:14:50;9.03;;;7.10;;
17727;SDS011;8984;49.268;12.302;2023-02-28T01:17:16;8.53;;;7.10;;
17727;SDS011;8984;49.268;12.302;2023-02-28T01:19:43;9.33;;;7.67;;
17727;SDS011;8984;49.268;12.302;2023-02-28T01:22:10;10.40;;;8.13;;
17727;SDS011;8984;49.268;12.302;2023-02-28T01:24:37;9.87;;;7.50;;
17727;SDS011;8984;49.268;12.302;2023-02-28T01:27:03;11.20;;;7.90;;
17727;SDS011;8984;49.268;12.302;2023-02-28T01:29:32;9.97;;;7.57;;
17727;SDS011;8984;49.268;12.302;2023-02-28T01:31:58;11.57;;;8.13;;
17727;SDS011;8984;49.268;12.302;2023-02-28T01:34:25;9.90;;;7.53;;
17727;SDS011;8984;49.268;12.302;2023-02-28T01:36:52;11.50;;;7.77;;
17727;SDS011;8984;49.268;12.302;2023-02-28T01:39:20;10.97;;;7.43;;
17727;SDS011;8984;49.268;12.302;2023-02-28T01:41:47;11.70;;;7.87;;
17727;SDS011;8984;49.268;12.302;2023-02-28T01:47:19;11.47;;;8.63;;
17727;SDS011;8984;49.268;12.302;2023-02-28T01:49:46;9.87;;;7.80;;
17727;SDS011;8984;49.268;12.302;2023-02-28T01:52:14;10.77;;;8.50;;
17727;SDS011;8984;49.268;12.302;2023-02-28T01:54:43;10.73;;;8.47;;
17727;SDS011;8984;49.268;12.302;2023-02-28T01:57:16;11.23;;;8.03;;
17727;SDS011;8984;49.268;12.302;2023-02-28T01:59:47;11.53;;;8.73;;
17727;SDS011;8984;49.268;12.302;2023-02-28T02:02:20;12.57;;;8.07;;
17727;SDS011;8984;49.268;12.302;2023-02-28T02:04:50;10.40;;;8.47;;
17727;SDS011;8984;49.268;12.302;2023-02-28T02:07:20;10.87;;;8.87;;
17727;SDS011;8984;49.268;12.302;2023-02-28T02:09:49;10.30;;;8.03;;
17727;SDS011;8984;49.268;12.302;2023-02-28T02:12:19;14.13;;;9.10;;
17727;SDS011;8984;49.268;12.302;2023-02-28T02:14:59;10.60;;;8.30;;
17727;SDS011;8984;49.268;12.302;2023-02-28T02:17:33;16.10;;;10.07;;
17727;SDS011;8984;49.268;12.302;2023-02-28T02:20:16;12.57;;;9.40;;
17727;SDS011;8984;49.268;12.302;2023-02-28T02:23:02;13.03;;;9.33;;
17727;SDS011;8984;49.268;12.302;2023-02-28T02:25:53;12.40;;;9.57;;
17727;SDS011;8984;49.268;12.302;2023-02-28T02:31:33;15.10;;;10.23;;
17727;SDS011;8984;49.268;12.302;2023-02-28T02:34:27;15.17;;;9.90;;
17727;SDS011;8984;49.268;12.302;2023-02-28T02:37:15;13.63;;;9.80;;
17727;SDS011;8984;49.268;12.302;2023-02-28T02:39:51;10.73;;;8.97;;
17727;SDS011;8984;49.268;12.302;2023-02-28T02:42:21;13.17;;;9.83;;
17727;SDS011;8984;49.268;12.302;2023-02-28T02:44:55;13.97;;;10.20;;
17727;SDS011;8984;49.268;12.302;2023-02-28T02:47:27;12.33;;;9.50;;
17727;SDS011;8984;49.268;12.302;2023-02-28T02:49:59;13.83;;;9.63;;
17727;SDS011;8984;49.268;12.302;2023-02-28T02:52:33;14.23;;;10.10;;
17727;SDS011;8984;49.268;12.302;2023-02-28T02:55:05;13.63;;;9.33;;
17727;SDS011;8984;49.268;12.302;2023-02-28T02:57:36;14.50;;;9.37;;
17727;SDS011;8984;49.268;12.302;2023-02-28T03:00:10;13.80;;;9.13;;
17727;SDS011;8984;49.268;12.302;2023-02-28T03:02:38;14.63;;;10.10;;
17727;SDS011;8984;49.268;12.302;2023-02-28T03:05:14;12.30;;;9.20;;
17727;SDS011;8984;49.268;12.302;2023-02-28T03:07:46;12.00;;;9.40;;
17727;SDS011;8984;49.268;12.302;2023-02-28T03:10:29;13.10;;;10.03;;
17727;SDS011;8984;49.268;12.302;2023-02-28T03:13:06;13.40;;;9.83;;
17727;SDS011;8984;49.268;12.302;2023-02-28T03:15:42;13.60;;;10.47;;
17727;SDS011;8984;49.268;12.302;2023-02-28T03:18:22;13.93;;;9.87;;
17727;SDS011;8984;49.268;12.302;2023-02-28T03:20:55;11.73;;;8.80;;
17727;SDS011;8984;49.268;12.302;2023-02-28T03:23:32;14.67;;;10.43;;
17727;SDS011;8984;49.268;12.302;2023-02-28T03:26:06;14.67;;;10.17;;
17727;SDS011;8984;49.268;12.302;2023-02-28T03:28:40;13.27;;;9.70;;
17727;SDS011;8984;49.268;12.302;2023-02-28T03:31:12;12.20;;;9.00;;
17727;SDS011;8984;49.268;12.302;2023-02-28T03:33:46;15.63;;;10.13;;
17727;SDS011;8984;49.268;12.302;2023-02-28T03:36:22;11.20;;;8.77;;
17727;SDS011;8984;49.268;12.302;2023-02-28T03:38:54;12.50;;;9.67;;
17727;SDS011;8984;49.268;12.302;2023-02-28T03:41:27;17.07;;;11.20;;
17727;SDS011;8984;49.268;12.302;2023-02-28T03:43:59;13.30;;;10.07;;
17727;SDS011;8984;49.268;12.302;2023-02-28T03:46:31;14.40;;;10.03;;
17727;SDS011;8984;49.268;12.302;2023-02-28T03:49:03;13.37;;;10.30;;
17727;SDS011;8984;49.268;12.302;2023-02-28T03:51:39;15.93;;;11.43;;
17727;SDS011;8984;49.268;12.302;2023-02-28T03:54:08;13.37;;;10.10;;
17727;SDS011;8984;49.268;12.302;2023-02-28T03:56:40;13.27;;;10.10;;
17727;SDS011;8984;49.268;12.302;2023-02-28T03:59:10;13.53;;;10.07;;
17727;SDS011;8984;49.268;12.302;2023-02-28T04:01:43;14.17;;;10.63;;
17727;SDS011;8984;49.268;12.302;2023-02-28T04:04:11;15.67;;;10.07;;
17727;SDS011;8984;49.268;12.302;2023-02-28T04:06:41;15.63;;;12.47;;
17727;SDS011;8984;49.268;12.302;2023-02-28T04:09:09;16.43;;;11.60;;
17727;SDS011;8984;49.268;12.302;2023-02-28T04:11:38;13.47;;;10.07;;
17727;SDS011;8984;49.268;12.302;2023-02-28T04:14:07;14.93;;;10.80;;
17727;SDS011;8984;49.268;12.302;2023-02-28T04:16:36;13.43;;;9.87;;
17727;SDS011;8984;49.268;12.302;2023-02-28T04:19:05;18.23;;;10.93;;
17727;SDS011;8984;49.268;12.302;2023-02-28T04:21:33;15.27;;;10.87;;
17727;SDS011;8984;49.268;12.302;2023-02-28T04:24:03;15.57;;;10.70;;
17727;SDS011;8984;49.268;12.302;2023-02-28T04:26:31;16.10;;;10.93;;
17727;SDS011;8984;49.268;12.302;2023-02-28T04:28:59;13.77;;;10.33;;
17727;SDS011;8984;49.268;12.302;2023-02-28T04:31:26;14.87;;;10.87;;
17727;SDS011;8984;49.268;12.302;2023-02-28T04:33:53;16.40;;;11.57;;
17727;SDS011;8984;49.268;12.302;2023-02-28T04:36:20;18.60;;;12.50;;
17727;SDS011;8984;49.268;12.302;2023-02-28T04:38:48;16.77;;;11.30;;
17727;SDS011;8984;49.268;12.302;2023-02-28T04:41:17;21.87;;;13.73;;
17727;SDS011;8984;49.268;12.302;2023-02-28T04:43:43;18.07;;;12.27;;
17727;SDS011;8984;49.268;12.302;2023-02-28T04:46:10;15.90;;;11.03;;
17727;SDS011;8984;49.268;12.302;2023-02-28T04:48:38;17.80;;;12.30;;
17727;SDS011;8984;49.268;12.302;2023-02-28T04:51:06;17.90;;;12.73;;
17727;SDS011;8984;49.268;12.302;2023-02-28T04:53:34;16.43;;;11.70;;
17727;SDS011;8984;49.268;12.302;2023-02-28T04:56:02;16.77;;;12.30;;
17727;SDS011;8984;49.268;12.302;2023-02-28T04:58:30;17.63;;;12.30;;
17727;SDS011;8984;49.268;12.302;2023-02-28T05:01:01;41.83;;;25.67;;
17727;SDS011;8984;49.268;12.302;2023-02-28T05:03:28;34.83;;;24.03;;
17727;SDS011;8984;49.268;12.302;2023-02-28T05:05:55;17.20;;;13.77;;
17727;SDS011;8984;49.268;12.302;2023-02-28T05:08:22;16.87;;;12.03;;
17727;SDS011;8984;49.268;12.302;2023-02-28T05:10:50;17.97;;;13.33;;
17727;SDS011;8984;49.268;12.302;2023-02-28T05:13:16;15.63;;;11.23;;
17727;SDS011;8984;49.268;12.302;2023-02-28T05:15:44;15.63;;;12.03;;
17727;SDS011;8984;49.268;12.302;2023-02-28T05:18:11;17.30;;;11.93;;
17727;SDS011;8984;49.268;12.302;2023-02-28T05:20:39;17.37;;;11.57;;
17727;SDS011;8984;49.268;12.302;2023-02-28T05:23:07;16.40;;;11.80;;
17727;SDS011;8984;49.268;12.302;2023-02-28T05:25:36;18.73;;;11.63;;
17727;SDS011;8984;49.268;12.302;2023-02-28T05:28:04;16.77;;;11.80;;
17727;SDS011;8984;49.268;12.302;2023-02-28T05:30:31;14.57;;;11.37;;
17727;SDS011;8984;49.268;12.302;2023-02-28T05:33:00;15.60;;;11.80;;
17727;SDS011;8984;49.268;12.302;2023-02-28T05:35:27;16.13;;;10.90;;
17727;SDS011;8984;49.268;12.302;2023-02-28T05:37:54;14.63;;;10.73;;
17727;SDS011;8984;49.268;12.302;2023-02-28T05:40:20;14.93;;;11.10;;
17727;SDS011;8984;49.268;12.302;2023-02-28T05:42:47;15.47;;;11.20;;
17727;SDS011;8984;49.268;12.302;2023-02-28T05:45:16;13.33;;;9.87;;
17727;SDS011;8984;49.268;12.302;2023-02-28T05:47:43;13.03;;;10.60;;
17727;SDS011;8984;49.268;12.302;2023-02-28T05:50:12;13.57;;;9.40;;
17727;SDS011;8984;49.268;12.302;2023-02-28T05:52:38;11.83;;;8.97;;
17727;SDS011;8984;49.268;12.302;2023-02-28T05:55:05;11.47;;;8.60;;
17727;SDS011;8984;49.268;12.302;2023-02-28T05:57:33;12.43;;;8.70;;
17727;SDS011;8984;49.268;12.302;2023-02-28T05:59:59;11.60;;;8.43;;
17727;SDS011;8984;49.268;12.302;2023-02-28T06:02:27;10.83;;;8.60;;
17727;SDS011;8984;49.268;12.302;2023-02-28T06:04:54;11.33;;;8.37;;
17727;SDS011;8984;49.268;12.302;2023-02-28T06:07:22;11.20;;;7.83;;
17727;SDS011;8984;49.268;12.302;2023-02-28T06:09:48;12.93;;;8.50;;
17727;SDS011;8984;49.268;12.302;2023-02-28T06:12:15;11.83;;;8.60;;
17727;SDS011;8984;49.268;12.302;2023-02-28T06:14:42;10.20;;;8.43;;
17727;SDS011;8984;49.268;12.302;2023-02-28T06:17:09;11.20;;;8.40;;
17727;SDS011;8984;49.268;12.302;2023-02-28T06:19:38;13.87;;;8.50;;
17727;SDS011;8984;49.268;12.302;2023-02-28T06:22:06;11.37;;;8.20;;
17727;SDS011;8984;49.268;12.302;2023-02-28T06:24:34;11.43;;;9.10;;
17727;SDS011;8984;49.268;12.302;2023-02-28T06:27:01;10.87;;;8.50;;
17727;SDS011;8984;49.268;12.302;2023-02-28T06:29:30;12.37;;;9.30;;
17727;SDS011;8984;49.268;12.302;2023-02-28T06:31:57;12.40;;;8.83;;
17727;SDS011;8984;49.268;12.302;2023-02-28T06:34:23;10.67;;;7.97;;
17727;SDS011;8984;49.268;12.302;2023-02-28T06:36:51;12.93;;;9.30;;
17727;SDS011;8984;49.268;12.302;2023-02-28T06:39:18;12.97;;;9.50;;
17727;SDS011;8984;49.268;12.302;2023-02-28T06:41:46;15.73;;;11.63;;
17727;SDS011;8984;49.268;12.302;2023-02-28T06:44:14;26.63;;;16.47;;
17727;SDS011;8984;49.268;12.302;2023-02-28T06:46:42;14.13;;;9.50;;
17727;SDS011;8984;49.268;12.302;2023-02-28T06:49:11;14.03;;;9.97;;
17727;SDS011;8984;49.268;12.302;2023-02-28T06:51:40;15.43;;;11.10;;
17727;SDS011;8984;49.268;12.302;2023-02-28T06:54:10;14.97;;;9.90;;
17727;SDS011;8984;49.268;12.302;2023-02-28T06:56:37;14.13;;;11.30;;
17727;SDS011;8984;49.268;12.302;2023-02-28T06:59:05;17.50;;;12.40;;
17727;SDS011;8984;49.268;12.302;2023-02-28T07:01:32;13.20;;;9.27;;
17727;SDS011;8984;49.268;12.302;2023-02-28T07:03:59;13.63;;;9.97;;
17727;SDS011;8984;49.268;12.302;2023-02-28T07:06:26;12.50;;;9.47;;
17727;SDS011;8984;49.268;12.302;2023-02-28T07:08:54;14.13;;;9.77;;
17727;SDS011;8984;49.268;12.302;2023-02-28T07:11:21;15.80;;;11.40;;
17727;SDS011;8984;49.268;12.302;2023-02-28T07:13:50;12.67;;;9.03;;
17727;SDS011;8984;49.268;12.302;2023-02-28T07:16:18;11.67;;;9.07;;
17727;SDS011;8984;49.268;12.302;2023-02-28T07:18:45;15.27;;;10.60;;
17727;SDS011;8984;49.268;12.302;2023-02-28T07:21:12;12.23;;;8.93;;
17727;SDS011;8984;49.268;12.302;2023-02-28T07:23:39;13.67;;;9.90;;
17727;SDS011;8984;49.268;12.302;2023-02-28T07:26:06;13.63;;;9.00;;
17727;SDS011;8984;49.268;12.302;2023-02-28T07:28:37;12.83;;;8.47;;
17727;SDS011;8984;49.268;12.302;2023-02-28T07:31:05;10.60;;;8.33;;
17727;SDS011;8984;49.268;12.302;2023-02-28T07:33:33;11.13;;;8.00;;
17727;SDS011;8984;49.268;12.302;2023-02-28T07:36:01;13.40;;;9.27;;
17727;SDS011;8984;49.268;12.302;2023-02-28T07:38:28;12.27;;;8.83;;
17727;SDS011;8984;49.268;12.302;2023-02-28T07:40:55;10.53;;;8.63;;
17727;SDS011;8984;49.268;12.302;2023-02-28T07:43:21;12.37;;;8.50;;
17727;SDS011;8984;49.268;12.302;2023-02-28T07:45:48;10.60;;;8.80;;
17727;SDS011;8984;49.268;12.302;2023-02-28T07:48:15;15.43;;;8.70;;
17727;SDS011;8984;49.268;12.302;2023-02-28T07:50:43;10.97;;;7.40;;
17727;SDS011;8984;49.268;12.302;2023-02-28T07:53:13;11.67;;;8.50;;
17727;SDS011;8984;49.268;12.302;2023-02-28T07:55:39;10.83;;;7.97;;
17727;SDS011;8984;49.268;12.302;2023-02-28T07:58:06;10.13;;;7.93;;
17727;SDS011;8984;49.268;12.302;2023-02-28T08:00:33;14.00;;;8.57;;
17727;SDS011;8984;49.268;12.302;2023-02-28T08:03:00;12.37;;;8.70;;
17727;SDS011;8984;49.268;12.302;2023-02-28T08:05:27;10.87;;;8.00;;
17727;SDS011;8984;49.268;12.302;2023-02-28T08:07:56;12.30;;;8.27;;
17727;SDS011;8984;49.268;12.302;2023-02-28T08:10:23;11.53;;;8.97;;
17727;SDS011;8984;49.268;12.302;2023-02-28T08:12:50;15.50;;;9.37;;
17727;SDS011;8984;49.268;12.302;2023-02-28T08:15:16;14.67;;;9.20;;
17727;SDS011;8984;49.268;12.302;2023-02-28T08:17:43;13.90;;;9.83;;
17727;SDS011;8984;49.268;12.302;2023-02-28T08:20:10;12.47;;;8.83;;
17727;SDS011;8984;49.268;12.302;2023-02-28T08:22:38;13.37;;;9.57;;
17727;SDS011;8984;49.268;12.302;2023-02-28T08:25:07;13.30;;;9.03;;
17727;SDS011;8984;49.268;12.302;2023-02-28T08:27:34;13.20;;;9.47;;
17727;SDS011;8984;49.268;12.302;2023-02-28T08:30:01;12.57;;;9.57;;
17727;SDS011;8984;49.268;12.302;2023-02-28T08:32:28;17.20;;;9.47;;
17727;SDS011;8984;49.268;12.302;2023-02-28T08:34:55;13.40;;;8.80;;
17727;SDS011;8984;49.268;12.302;2023-02-28T08:37:22;13.17;;;9.30;;
17727;SDS011;8984;49.268;12.302;2023-02-28T08:39:49;13.93;;;9.40;;
17727;SDS011;8984;49.268;12.302;2023-02-28T08:42:17;15.17;;;9.90;;
17727;SDS011;8984;49.268;12.302;2023-02-28T08:44:44;13.23;;;9.63;;
17727;SDS011;8984;49.268;12.302;2023-02-28T08:47:10;11.23;;;8.83;;
17727;SDS011;8984;49.268;12.302;2023-02-28T08:49:37;12.80;;;9.53;;
17727;SDS011;8984;49.268;12.302;2023-02-28T08:52:04;13.07;;;9.40;;
17727;SDS011;8984;49.268;12.302;2023-02-28T08:54:31;13.97;;;9.93;;
17727;SDS011;8984;49.268;12.302;2023-02-28T08:56:59;15.97;;;9.63;;
17727;SDS011;8984;49.268;12.302;2023-02-28T08:59:27;14.87;;;10.20;;
17727;SDS011;8984;49.268;12.302;2023-02-28T09:01:54;18.93;;;12.23;;
17727;SDS011;8984;49.268;12.302;2023-02-28T09:04:21;19.40;;;12.70;;
17727;SDS011;8984;49.268;12.302;2023-02-28T09:06:48;14.97;;;10.27;;
17727;SDS011;8984;49.268;12.302;2023-02-28T09:09:15;15.47;;;11.20;;
17727;SDS011;8984;49.268;12.302;2023-02-28T09:11:54;15.67;;;11.07;;
17727;SDS011;8984;49.268;12.302;2023-02-28T09:14:24;14.87;;;11.03;;
17727;SDS011;8984;49.268;12.302;2023-02-28T09:16:52;16.50;;;10.60;;
17727;SDS011;8984;49.268;12.302;2023-02-28T09:19:19;20.23;;;10.53;;
17727;SDS011;8984;49.268;12.302;2023-02-28T09:21:47;14.33;;;10.67;;
17727;SDS011;8984;49.268;12.302;2023-02-28T09:24:14;17.10;;;11.47;;
17727;SDS011;8984;49.268;12.302;2023-02-28T09:26:40;16.43;;;10.73;;
17727;SDS011;8984;49.268;12.302;2023-02-28T09:29:07;15.63;;;10.60;;
17727;SDS011;8984;49.268;12.302;2023-02-28T09:31:37;15.67;;;11.10;;
17727;SDS011;8984;49.268;12.302;2023-02-28T09:34:04;15.90;;;11.03;;
17727;SDS011;8984;49.268;12.302;2023-02-28T09:36:31;14.20;;;11.10;;
17727;SDS011;8984;49.268;12.302;2023-02-28T09:38:59;17.83;;;11.10;;
17727;SDS011;8984;49.268;12.302;2023-02-28T09:41:26;15.03;;;10.77;;
17727;SDS011;8984;49.268;12.302;2023-02-28T09:44:04;17.83;;;10.70;;
17727;SDS011;8984;49.268;12.302;2023-02-28T09:46:40;16.27;;;10.73;;
17727;SDS011;8984;49.268;12.302;2023-02-28T09:49:10;12.57;;;9.57;;
17727;SDS011;8984;49.268;12.302;2023-02-28T09:51:43;15.13;;;10.93;;
17727;SDS011;8984;49.268;12.302;2023-02-28T09:54:15;18.10;;;9.90;;
17727;SDS011;8984;49.268;12.302;2023-02-28T09:56:44;15.37;;;10.93;;
17727;SDS011;8984;49.268;12.302;2023-02-28T09:59:16;18.90;;;11.63;;
17727;SDS011;8984;49.268;12.302;2023-02-28T10:01:54;16.10;;;11.13;;
17727;SDS011;8984;49.268;12.302;2023-02-28T10:04:33;16.60;;;11.13;;
17727;SDS011;8984;49.268;12.302;2023-02-28T10:07:05;15.83;;;10.27;;
17727;SDS011;8984;49.268;12.302;2023-02-28T10:09:44;14.13;;;9.83;;
17727;SDS011;8984;49.268;12.302;2023-02-28T10:12:13;12.80;;;9.20;;
17727;SDS011;8984;49.268;12.302;2023-02-28T10:14:44;12.97;;;9.93;;
17727;SDS011;8984;49.268;12.302;2023-02-28T10:17:15;18.80;;;10.83;;
17727;SDS011;8984;49.268;12.302;2023-02-28T10:19:47;14.37;;;10.57;;
17727;SDS011;8984;49.268;12.302;2023-02-28T10:22:20;15.60;;;10.27;;
17727;SDS011;8984;49.268;12.302;2023-02-28T10:24:51;15.43;;;11.07;;
17727;SDS011;8984;49.268;12.302;2023-02-28T10:27:20;14.47;;;10.73;;
17727;SDS011;8984;49.268;12.302;2023-02-28T10:29:50;14.50;;;10.63;;
17727;SDS011;8984;49.268;12.302;2023-02-28T10:32:20;16.50;;;11.20;;
17727;SDS011;8984;49.268;12.302;2023-02-28T10:34:50;16.43;;;10.70;;
17727;SDS011;8984;49.268;12.302;2023-02-28T10:37:18;17.23;;;11.30;;
17727;SDS011;8984;49.268;12.302;2023-02-28T10:39:46;16.27;;;11.27;;
17727;SDS011;8984;49.268;12.302;2023-02-28T10:42:20;17.73;;;11.13;;
17727;SDS011;8984;49.268;12.302;2023-02-28T10:45:01;16.20;;;10.37;;
17727;SDS011;8984;49.268;12.302;2023-02-28T10:47:33;12.77;;;9.47;;
17727;SDS011;8984;49.268;12.302;2023-02-28T10:50:03;14.80;;;9.83;;
17727;SDS011;8984;49.268;12.302;2023-02-28T10:52:33;18.03;;;11.67;;
17727;SDS011;8984;49.268;12.302;2023-02-28T10:55:13;15.70;;;10.53;;
17727;SDS011;8984;49.268;12.302;2023-02-28T10:57:45;13.47;;;9.47;;
17727;SDS011;8984;49.268;12.302;2023-02-28T11:00:14;13.50;;;9.87;;
17727;SDS011;8984;49.268;12.302;2023-02-28T11:02:45;12.67;;;9.63;;
17727;SDS011;8984;49.268;12.302;2023-02-28T11:05:25;18.47;;;9.87;;
17727;SDS011;8984;49.268;12.302;2023-02-28T11:07:53;15.20;;;9.90;;
17727;SDS011;8984;49.268;12.302;2023-02-28T11:10:23;12.87;;;9.63;;
17727;SDS011;8984;49.268;12.302;2023-02-28T11:12:54;16.17;;;9.90;;
17727;SDS011;8984;49.268;12.302;2023-02-28T11:15:22;15.93;;;9.33;;
17727;SDS011;8984;49.268;12.302;2023-02-28T11:17:56;12.43;;;9.10;;
17727;SDS011;8984;49.268;12.302;2023-02-28T11:23:14;16.40;;;10.27;;
17727;SDS011;8984;49.268;12.302;2023-02-28T11:25:45;13.07;;;9.37;;
17727;SDS011;8984;49.268;12.302;2023-02-28T11:28:23;16.70;;;9.37;;
17727;SDS011;8984;49.268;12.302;2023-02-28T11:31:05;16.87;;;10.17;;
17727;SDS011;8984;49.268;12.302;2023-02-28T11:33:44;14.60;;;10.20;;
17727;SDS011;8984;49.268;12.302;2023-02-28T11:36:14;13.00;;;9.27;;
17727;SDS011;8984;49.268;12.302;2023-02-28T11:38:44;14.67;;;9.73;;
17727;SDS011;8984;49.268;12.302;2023-02-28T11:44:02;15.33;;;10.87;;
17727;SDS011;8984;49.268;12.302;2023-02-28T11:46:46;16.67;;;11.10;;
17727;SDS011;8984;49.268;12.302;2023-02-28T11:49:23;15.83;;;11.47;;
17727;SDS011;8984;49.268;12.302;2023-02-28T11:51:56;12.20;;;9.43;;
17727;SDS011;8984;49.268;12.302;2023-02-28T11:54:34;13.07;;;9.73;;
17727;SDS011;8984;49.268;12.302;2023-02-28T11:57:17;16.27;;;11.60;;
17727;SDS011;8984;49.268;12.302;2023-02-28T11:59:59;15.67;;;8.70;;
17727;SDS011;8984;49.268;12.302;2023-02-28T12:02:35;15.13;;;11.57;;
17727;SDS011;8984;49.268;12.302;2023-02-28T12:05:25;13.97;;;11.07;;
17727;SDS011;8984;49.268;12.302;2023-02-28T12:07:59;13.60;;;9.47;;
17727;SDS011;8984;49.268;12.302;2023-02-28T12:10:37;14.93;;;9.50;;
17727;SDS011;8984;49.268;12.302;2023-02-28T12:13:16;14.10;;;9.70;;
17727;SDS011;8984;49.268;12.302;2023-02-28T12:15:54;12.53;;;9.40;;
17727;SDS011;8984;49.268;12.302;2023-02-28T12:21:44;11.87;;;9.20;;
17727;SDS011;8984;49.268;12.302;2023-02-28T12:24:26;11.47;;;9.40;;
17727;SDS011;8984;49.268;12.302;2023-02-28T12:27:05;11.67;;;9.30;;
17727;SDS011;8984;49.268;12.302;2023-02-28T12:29:38;13.33;;;9.40;;
17727;SDS011;8984;49.268;12.302;2023-02-28T12:32:12;12.87;;;9.73;;
17727;SDS011;8984;49.268;12.302;2023-02-28T12:34:44;14.37;;;9.77;;
17727;SDS011;8984;49.268;12.302;2023-02-28T12:37:15;13.60;;;9.00;;
17727;SDS011;8984;49.268;12.302;2023-02-28T12:39:48;13.53;;;9.90;;
17727;SDS011;8984;49.268;12.302;2023-02-28T12:42:19;13.60;;;9.83;;
17727;SDS011;8984;49.268;12.302;2023-02-28T12:44:54;18.23;;;9.70;;
17727;SDS011;8984;49.268;12.302;2023-02-28T12:47:25;14.80;;;10.20;;
17727;SDS011;8984;49.268;12.302;2023-02-28T12:49:53;13.97;;;9.77;;
17727;SDS011;8984;49.268;12.302;2023-02-28T12:52:28;14.17;;;10.53;;
17727;SDS011;8984;49.268;12.302;2023-02-28T12:55:03;15.53;;;10.67;;
17727;SDS011;8984;49.268;12.302;2023-02-28T12:57:34;16.50;;;9.90;;
17727;SDS011;8984;49.268;12.302;2023-02-28T13:00:10;13.13;;;10.03;;
17727;SDS011;8984;49.268;12.302;2023-02-28T13:06:19;15.50;;;10.30;;
17727;SDS011;8984;49.268;12.302;2023-02-28T13:11:46;13.63;;;10.23;;
17727;SDS011;8984;49.268;12.302;2023-02-28T13:14:26;13.60;;;9.80;;
17727;SDS011;8984;49.268;12.302;2023-02-28T13:17:09;17.63;;;10.80;;
17727;SDS011;8984;49.268;12.302;2023-02-28T13:19:38;14.83;;;10.67;;
17727;SDS011;8984;49.268;12.302;2023-02-28T13:22:15;16.60;;;11.00;;
17727;SDS011;8984;49.268;12.302;2023-02-28T13:24:46;14.03;;;10.23;;
17727;SDS011;8984;49.268;12.302;2023-02-28T13:30:02;15.80;;;10.53;;
17727;SDS011;8984;49.268;12.302;2023-02-28T13:36:01;13.73;;;10.27;;
17727;SDS011;8984;49.268;12.302;2023-02-28T13:38:38;12.43;;;10.20;;
17727;SDS011;8984;49.268;12.302;2023-02-28T13:44:07;14.20;;;9.37;;
17727;SDS011;8984;49.268;12.302;2023-02-28T13:46:36;14.67;;;10.43;;
17727;SDS011;8984;49.268;12.302;2023-02-28T13:49:27;13.33;;;9.93;;
17727;SDS011;8984;49.268;12.302;2023-02-28T13:52:02;13.47;;;9.67;;
17727;SDS011;8984;49.268;12.302;2023-02-28T13:54:40;14.03;;;9.77;;
17727;SDS011;8984;49.268;12.302;2023-02-28T13:57:26;12.60;;;9.60;;
17727;SDS011;8984;49.268;12.302;2023-02-28T14:00:08;18.57;;;12.53;;
17727;SDS011;8984;49.268;12.302;2023-02-28T14:02:48;14.07;;;10.10;;
17727;SDS011;8984;49.268;12.302;2023-02-28T14:05:37;21.93;;;16.33;;
17727;SDS011;8984;49.268;12.302;2023-02-28T14:08:06;23.17;;;18.60;;
17727;SDS011;8984;49.268;12.302;2023-02-28T14:10:41;20.20;;;14.83;;
17727;SDS011;8984;49.268;12.302;2023-02-28T14:13:13;14.10;;;10.23;;
17727;SDS011;8984;49.268;12.302;2023-02-28T14:15:56;13.07;;;9.87;;
17727;SDS011;8984;49.268;12.302;2023-02-28T14:18:26;14.30;;;10.10;;
17727;SDS011;8984;49.268;12.302;2023-02-28T14:21:03;14.63;;;10.10;;
17727;SDS011;8984;49.268;12.302;2023-02-28T14:23:50;14.63;;;11.23;;
17727;SDS011;8984;49.268;12.302;2023-02-28T14:26:44;12.70;;;10.33;;
17727;SDS011;8984;49.268;12.302;2023-02-28T14:29:30;14.33;;;11.23;;
17727;SDS011;8984;49.268;12.302;2023-02-28T14:32:10;13.87;;;10.13;;
17727;SDS011;8984;49.268;12.302;2023-02-28T14:34:45;13.30;;;10.83;;
17727;SDS011;8984;49.268;12.302;2023-02-28T14:37:20;14.10;;;10.17;;
17727;SDS011;8984;49.268;12.302;2023-02-28T14:39:52;13.47;;;10.20;;
17727;SDS011;8984;49.268;12.302;2023-02-28T14:42:30;12.33;;;9.40;;
17727;SDS011;8984;49.268;12.302;2023-02-28T14:44:58;15.10;;;9.93;;
17727;SDS011;8984;49.268;12.302;2023-02-28T14:47:26;13.57;;;9.67;;
17727;SDS011;8984;49.268;12.302;2023-02-28T14:49:56;14.43;;;10.27;;
17727;SDS011;8984;49.268;12.302;2023-02-28T14:52:26;13.93;;;10.13;;
17727;SDS011;8984;49.268;12.302;2023-02-28T14:54:55;15.43;;;10.57;;
17727;SDS011;8984;49.268;12.302;2023-02-28T14:57:24;15.07;;;10.33;;
17727;SDS011;8984;49.268;12.302;2023-02-28T14:59:59;17.23;;;10.43;;
17727;SDS011;8984;49.268;12.302;2023-02-28T15:02:30;14.17;;;9.80;;
17727;SDS011;8984;49.268;12.302;2023-02-28T15:05:00;14.27;;;10.77;;
17727;SDS011;8984;49.268;12.302;2023-02-28T15:07:37;16.53;;;10.97;;
17727;SDS011;8984;49.268;12.302;2023-02-28T15:10:13;13.77;;;10.77;;
17727;SDS011;8984;49.268;12.302;2023-02-28T15:12:49;12.07;;;10.40;;
17727;SDS011;8984;49.268;12.302;2023-02-28T15:15:19;14.07;;;9.80;;
17727;SDS011;8984;49.268;12.302;2023-02-28T15:17:49;13.23;;;10.30;;
17727;SDS011;8984;49.268;12.302;2023-02-28T15:20:18;17.13;;;11.23;;